• Join FlightAware (Why Join?)
  • Login
  • US Flag 
05:38AM EST


 

Airport Tracker/Info


-or-


 

Live Flight TrackerFlight Track Log ✈ BJS542 ✈ 01-May-2013 ✈ KPDK - KLAL

Flight Track Log - Related Links

Times and Time Zones

All times are in EDT time to prevent confusion due to time zone crossing. See the BJS542 flight status page for this flight to view local times or setup timezone preferences in your user account.

Time Position Orientation Groundspeed Altitude Reporting Facility
EDT Latitude Longitude Course Direction KTS MPH feet Rate Location/Type
07:09AM 33.9167 -84.2833 360° North 188 216 3,100  Level Atlanta TRACON
07:10AM 33.9667 -84.2833 360° North 225 259 6,800 3,900 Climbing Atlanta TRACON
07:11AM 33.9667 -84.3833 270° West 285 328 11,400 3,360 Climbing Atlanta TRACON
07:12AM 33.9500 -84.4667 256° West 338 389 13,200 1,320 Climbing Atlanta TRACON
07:13AM 33.8519 -84.5017 197° South 361 415 14,000 2,460 Climbing Atlanta Center
07:15AM 33.6536 -84.4931 178° South 353 406 21,000 3,060 Climbing Atlanta Center
07:16AM 33.5575 -84.4900 178° South 369 425 23,300 1,920 Climbing Atlanta Center
07:17AM 33.4469 -84.4844 178° South 388 447 24,900 2,400 Climbing Atlanta Center
07:18AM 33.3300 -84.4789 178° South 394 453 28,200 2,640 Climbing Atlanta Center
07:19AM 33.2153 -84.4733 178° South 394 453 30,200 1,860 Climbing Atlanta Center
07:20AM 33.0964 -84.4703 179° South 421 484 32,000 1,800 Climbing Atlanta Center
07:21AM 32.9753 -84.4647 178° South 434 499 33,900 2,220 Climbing Atlanta Center
07:22AM 32.8522 -84.4617 179° South 439 505 36,500 2,760 Climbing Atlanta Center
07:23AM 32.7436 -84.4586 179° South 424 488 39,500 2,040 Climbing Atlanta Center
07:24AM 32.6372 -84.4533 178° South 399 459 40,600 720 Climbing Atlanta Center
07:25AM 32.5244 -84.4503 179° South 399 459 41,000 300 Climbing Atlanta Center
07:27AM 32.2697 -84.4381 178° South 414 476 41,700 600 Climbing Jacksonville Center
07:28AM 32.1592 -84.4361 179° South 414 476 43,000 600 Climbing Jacksonville Center
07:29AM 32.0403 -84.4342 179° South 414 476 43,000  Level Jacksonville Center
07:30AM 31.9233 -84.4272 177° South 419 482 43,000  Level Jacksonville Center
07:31AM 31.8025 -84.4228 178° South 424 488 43,000  Level Jacksonville Center
07:32AM 31.6836 -84.4111 175° South 424 488 43,000  Level Jacksonville Center
07:33AM 31.5819 -84.3533 154° Southeast 441 507 43,000  Level Jacksonville Center
07:34AM 31.4761 -84.2836 151° Southeast 441 507 43,000  Level Jacksonville Center
07:35AM 31.3706 -84.2114 150° Southeast 436 502 43,000  Level Jacksonville Center
07:36AM 31.2606 -84.1394 151° Southeast 442 509 43,000  Level Jacksonville Center
07:37AM 31.1528 -84.0675 150° Southeast 447 514 43,000 -480 Level Jacksonville Center
07:38AM 31.0428 -83.9933 150° Southeast 447 514 42,100 -1,260 Descending Jacksonville Center
07:39AM 30.9367 -83.9219 150° Southeast 448 516 40,500 -1,800 Descending Jacksonville Center
07:40AM 30.8328 -83.8531 150° Southeast 442 509 38,600 -1,800 Descending Jacksonville Center
07:41AM 30.7331 -83.7892 151° Southeast 426 490 37,000 -840 Descending Jacksonville Center
07:42AM 30.6314 -83.7206 150° Southeast 418 481 37,000  Level Jacksonville Center
07:43AM 30.5189 -83.6450 150° Southeast 418 481 37,000  Level Jacksonville Center
07:44AM 30.4150 -83.5767 150° Southeast 413 475 37,000  Level Jacksonville Center
07:45AM 30.3089 -83.5061 150° Southeast 418 481 37,000 -60 Level Jacksonville Center
07:46AM 30.2028 -83.4381 151° Southeast 423 487 36,900 -1,020 Descending Jacksonville Center
07:47AM 30.0944 -83.3681 151° Southeast 434 499 35,000 -1,920 Descending Jacksonville Center
07:48AM 29.9797 -83.2978 152° Southeast 446 513 33,100 -2,040 Descending Jacksonville Center
07:49AM 29.8653 -83.2231 150° Southeast 462 532 31,000 -2,040 Descending Jacksonville Center
07:50AM 29.7528 -83.1508 151° Southeast 456 525 29,100 -1,860 Descending Jacksonville Center
07:51AM 29.6442 -83.0814 151° Southeast 451 519 27,300 -1,860 Descending Jacksonville Center
07:52AM 29.5400 -83.0119 150° Southeast 431 496 25,400 -1,680 Descending Jacksonville Center
07:53AM 29.4481 -82.9522 151° Southeast 426 490 24,000 -780 Descending Jacksonville Center
07:54AM 29.3522 -82.8903 151° Southeast 413 475 23,900 -300 Descending Jacksonville Center
07:55AM 29.2581 -82.8306 151° Southeast 399 459 23,500 -1,380 Descending Jacksonville Center
07:56AM 29.1578 -82.7642 150° Southeast 399 459 21,200 -2,220 Descending Jacksonville Center
07:57AM 29.0639 -82.7025 150° Southeast 399 459 19,100 -1,980 Descending Jacksonville Center
07:58AM 28.9783 -82.6458 150° Southeast 383 441 17,300 -1,860 Descending Jacksonville Center
07:59AM 28.8947 -82.5939 151° Southeast 364 419 15,400 -1,800 Descending Jacksonville Center
08:00AM 28.8153 -82.5419 150° Southeast 344 396 13,700 -900 Descending Jacksonville Center
08:02AM 28.6333 -82.4333 152° Southeast 335 386 12,700 -960 Descending Tampa TRACON
08:03AM 28.5667 -82.4000 156° South 314 361 11,100 -2,040 Descending Tampa TRACON
08:04AM 28.5000 -82.3500 147° Southeast 296 341 9,100 -2,040 Descending Tampa TRACON
08:05AM 28.4167 -82.3167 161° South 285 328 7,100 -2,040 Descending Tampa TRACON
08:06AM 28.3500 -82.3000 168° South 273 314 5,100 -1,620 Descending Tampa TRACON
08:07AM 28.2833 -82.2667 156° South 250 288 3,900 -1,020 Descending Tampa TRACON
08:08AM 28.2333 -82.2333 150° Southeast 234 269 3,100 -420 Descending Tampa TRACON
08:09AM 28.1667 -82.2000 156° South 249 287 3,100 -360 Level Tampa TRACON
08:10AM 28.1000 -82.1833 168° South 237 273 2,400 -660 Descending Tampa TRACON
08:11AM 28.0500 -82.1500 150° Southeast 211 243 1,800 -600 Descending Tampa TRACON